sensor_id;sensor_type;location;lat;lon;timestamp;P1;durP1;ratioP1;P2;durP2;ratioP2
20348;SDS011;10332;50.208;18.988;2023-08-24T00:01:12;4.18;;;3.78;;
20348;SDS011;10332;50.208;18.988;2023-08-24T00:03:39;6.72;;;4.30;;
20348;SDS011;10332;50.208;18.988;2023-08-24T00:06:07;5.65;;;4.30;;
20348;SDS011;10332;50.208;18.988;2023-08-24T00:08:35;5.97;;;3.88;;
20348;SDS011;10332;50.208;18.988;2023-08-24T00:11:02;6.15;;;3.95;;
20348;SDS011;10332;50.208;18.988;2023-08-24T00:13:31;6.50;;;4.13;;
20348;SDS011;10332;50.208;18.988;2023-08-24T00:15:59;4.25;;;3.25;;
20348;SDS011;10332;50.208;18.988;2023-08-24T00:18:26;5.68;;;4.22;;
20348;SDS011;10332;50.208;18.988;2023-08-24T00:20:54;5.30;;;4.25;;
20348;SDS011;10332;50.208;18.988;2023-08-24T00:23:21;6.28;;;4.28;;
20348;SDS011;10332;50.208;18.988;2023-08-24T00:25:49;5.95;;;4.25;;
20348;SDS011;10332;50.208;18.988;2023-08-24T00:28:16;6.20;;;4.25;;
20348;SDS011;10332;50.208;18.988;2023-08-24T00:30:44;5.03;;;3.90;;
20348;SDS011;10332;50.208;18.988;2023-08-24T00:33:12;7.68;;;4.28;;
20348;SDS011;10332;50.208;18.988;2023-08-24T00:35:39;10.38;;;5.03;;
20348;SDS011;10332;50.208;18.988;2023-08-24T00:38:07;6.60;;;4.40;;
20348;SDS011;10332;50.208;18.988;2023-08-24T00:40:34;5.15;;;4.25;;
20348;SDS011;10332;50.208;18.988;2023-08-24T00:43:02;6.45;;;4.55;;
20348;SDS011;10332;50.208;18.988;2023-08-24T00:45:30;6.85;;;4.63;;
20348;SDS011;10332;50.208;18.988;2023-08-24T00:48:00;9.10;;;5.40;;
20348;SDS011;10332;50.208;18.988;2023-08-24T00:50:28;7.43;;;5.57;;
20348;SDS011;10332;50.208;18.988;2023-08-24T00:52:56;9.07;;;5.30;;
20348;SDS011;10332;50.208;18.988;2023-08-24T00:55:24;6.03;;;4.93;;
20348;SDS011;10332;50.208;18.988;2023-08-24T00:57:51;6.65;;;4.43;;
20348;SDS011;10332;50.208;18.988;2023-08-24T01:00:20;7.43;;;5.43;;
20348;SDS011;10332;50.208;18.988;2023-08-24T01:02:48;6.50;;;5.40;;
20348;SDS011;10332;50.208;18.988;2023-08-24T01:05:17;8.05;;;5.68;;
20348;SDS011;10332;50.208;18.988;2023-08-24T01:07:45;6.47;;;5.40;;
20348;SDS011;10332;50.208;18.988;2023-08-24T01:10:12;7.53;;;5.20;;
20348;SDS011;10332;50.208;18.988;2023-08-24T01:13:00;6.30;;;5.00;;
20348;SDS011;10332;50.208;18.988;2023-08-24T01:15:43;5.55;;;4.80;;
20348;SDS011;10332;50.208;18.988;2023-08-24T01:18:39;5.15;;;4.15;;
20348;SDS011;10332;50.208;18.988;2023-08-24T01:21:10;8.13;;;4.97;;
20348;SDS011;10332;50.208;18.988;2023-08-24T01:24:41;6.15;;;5.32;;
20348;SDS011;10332;50.208;18.988;2023-08-24T01:26:41;6.53;;;5.32;;
20348;SDS011;10332;50.208;18.988;2023-08-24T01:29:10;8.18;;;5.20;;
20348;SDS011;10332;50.208;18.988;2023-08-24T01:31:38;6.65;;;5.03;;
20348;SDS011;10332;50.208;18.988;2023-08-24T01:34:05;7.88;;;5.45;;
20348;SDS011;10332;50.208;18.988;2023-08-24T01:36:33;7.53;;;5.20;;
20348;SDS011;10332;50.208;18.988;2023-08-24T01:39:10;6.78;;;5.25;;
20348;SDS011;10332;50.208;18.988;2023-08-24T01:41:50;8.15;;;5.70;;
20348;SDS011;10332;50.208;18.988;2023-08-24T01:44:27;7.95;;;5.45;;
20348;SDS011;10332;50.208;18.988;2023-08-24T01:47:02;7.60;;;5.50;;
20348;SDS011;10332;50.208;18.988;2023-08-24T01:49:34;7.15;;;5.43;;
20348;SDS011;10332;50.208;18.988;2023-08-24T01:52:02;6.32;;;5.07;;
20348;SDS011;10332;50.208;18.988;2023-08-24T01:54:31;7.28;;;5.03;;
20348;SDS011;10332;50.208;18.988;2023-08-24T01:56:59;6.57;;;4.80;;
20348;SDS011;10332;50.208;18.988;2023-08-24T01:59:26;7.10;;;5.00;;
20348;SDS011;10332;50.208;18.988;2023-08-24T02:01:54;6.95;;;5.65;;
20348;SDS011;10332;50.208;18.988;2023-08-24T02:04:22;7.38;;;5.63;;
20348;SDS011;10332;50.208;18.988;2023-08-24T02:06:49;7.40;;;5.43;;
20348;SDS011;10332;50.208;18.988;2023-08-24T02:09:17;8.85;;;6.03;;
20348;SDS011;10332;50.208;18.988;2023-08-24T02:11:44;8.73;;;5.95;;
20348;SDS011;10332;50.208;18.988;2023-08-24T02:14:12;8.50;;;5.35;;
20348;SDS011;10332;50.208;18.988;2023-08-24T02:16:39;6.78;;;5.28;;
20348;SDS011;10332;50.208;18.988;2023-08-24T02:19:07;6.20;;;4.72;;
20348;SDS011;10332;50.208;18.988;2023-08-24T02:21:37;4.78;;;4.07;;
20348;SDS011;10332;50.208;18.988;2023-08-24T02:24:05;4.90;;;4.10;;
20348;SDS011;10332;50.208;18.988;2023-08-24T02:26:33;4.82;;;4.13;;
20348;SDS011;10332;50.208;18.988;2023-08-24T02:29:01;4.28;;;3.60;;
20348;SDS011;10332;50.208;18.988;2023-08-24T02:31:29;4.47;;;3.25;;
20348;SDS011;10332;50.208;18.988;2023-08-24T02:33:56;5.13;;;3.70;;
20348;SDS011;10332;50.208;18.988;2023-08-24T02:36:24;6.15;;;4.70;;
20348;SDS011;10332;50.208;18.988;2023-08-24T02:38:51;7.28;;;5.57;;
20348;SDS011;10332;50.208;18.988;2023-08-24T02:41:19;7.22;;;4.53;;
20348;SDS011;10332;50.208;18.988;2023-08-24T02:43:46;5.53;;;4.50;;
20348;SDS011;10332;50.208;18.988;2023-08-24T02:46:14;4.85;;;3.75;;
20348;SDS011;10332;50.208;18.988;2023-08-24T02:48:41;3.92;;;3.53;;
20348;SDS011;10332;50.208;18.988;2023-08-24T02:51:09;3.75;;;3.42;;
20348;SDS011;10332;50.208;18.988;2023-08-24T02:53:37;7.00;;;5.07;;
20348;SDS011;10332;50.208;18.988;2023-08-24T02:56:05;8.35;;;5.38;;
20348;SDS011;10332;50.208;18.988;2023-08-24T02:58:32;7.10;;;5.07;;
20348;SDS011;10332;50.208;18.988;2023-08-24T03:01:04;6.05;;;5.03;;
20348;SDS011;10332;50.208;18.988;2023-08-24T03:03:34;6.80;;;5.60;;
20348;SDS011;10332;50.208;18.988;2023-08-24T03:06:04;7.15;;;5.70;;
20348;SDS011;10332;50.208;18.988;2023-08-24T03:08:34;7.38;;;5.90;;
20348;SDS011;10332;50.208;18.988;2023-08-24T03:11:02;7.60;;;5.32;;
20348;SDS011;10332;50.208;18.988;2023-08-24T03:13:30;7.53;;;5.72;;
20348;SDS011;10332;50.208;18.988;2023-08-24T03:16:02;8.23;;;6.28;;
20348;SDS011;10332;50.208;18.988;2023-08-24T03:18:32;7.97;;;5.65;;
20348;SDS011;10332;50.208;18.988;2023-08-24T03:21:00;5.65;;;5.03;;
20348;SDS011;10332;50.208;18.988;2023-08-24T03:23:28;5.47;;;4.50;;
20348;SDS011;10332;50.208;18.988;2023-08-24T03:25:55;6.80;;;5.60;;
20348;SDS011;10332;50.208;18.988;2023-08-24T03:28:23;8.40;;;6.75;;
20348;SDS011;10332;50.208;18.988;2023-08-24T03:30:51;8.80;;;6.50;;
20348;SDS011;10332;50.208;18.988;2023-08-24T03:33:21;6.53;;;5.70;;
20348;SDS011;10332;50.208;18.988;2023-08-24T03:35:48;5.72;;;4.70;;
20348;SDS011;10332;50.208;18.988;2023-08-24T03:38:16;5.35;;;4.55;;
20348;SDS011;10332;50.208;18.988;2023-08-24T03:40:44;7.22;;;5.07;;
20348;SDS011;10332;50.208;18.988;2023-08-24T03:43:12;7.05;;;4.93;;
20348;SDS011;10332;50.208;18.988;2023-08-24T03:45:41;6.80;;;4.75;;
20348;SDS011;10332;50.208;18.988;2023-08-24T03:48:09;6.43;;;4.85;;
20348;SDS011;10332;50.208;18.988;2023-08-24T03:50:37;7.25;;;5.15;;
20348;SDS011;10332;50.208;18.988;2023-08-24T03:53:05;5.55;;;4.90;;
20348;SDS011;10332;50.208;18.988;2023-08-24T03:55:33;7.05;;;5.15;;
20348;SDS011;10332;50.208;18.988;2023-08-24T03:58:01;9.00;;;5.00;;
20348;SDS011;10332;50.208;18.988;2023-08-24T04:00:29;8.15;;;5.82;;
20348;SDS011;10332;50.208;18.988;2023-08-24T04:02:57;7.72;;;5.93;;
20348;SDS011;10332;50.208;18.988;2023-08-24T04:05:25;7.72;;;6.32;;
20348;SDS011;10332;50.208;18.988;2023-08-24T04:07:52;8.20;;;6.90;;
20348;SDS011;10332;50.208;18.988;2023-08-24T04:10:20;7.15;;;5.65;;
20348;SDS011;10332;50.208;18.988;2023-08-24T04:12:47;6.00;;;4.97;;
20348;SDS011;10332;50.208;18.988;2023-08-24T04:15:15;6.32;;;5.07;;
20348;SDS011;10332;50.208;18.988;2023-08-24T04:17:42;6.30;;;4.95;;
20348;SDS011;10332;50.208;18.988;2023-08-24T04:20:10;5.72;;;5.13;;
20348;SDS011;10332;50.208;18.988;2023-08-24T04:22:38;5.82;;;5.22;;
20348;SDS011;10332;50.208;18.988;2023-08-24T04:25:06;7.07;;;5.60;;
20348;SDS011;10332;50.208;18.988;2023-08-24T04:27:34;9.00;;;6.78;;
20348;SDS011;10332;50.208;18.988;2023-08-24T04:30:03;10.55;;;6.78;;
20348;SDS011;10332;50.208;18.988;2023-08-24T04:32:31;8.35;;;7.13;;
20348;SDS011;10332;50.208;18.988;2023-08-24T04:34:59;10.65;;;7.50;;
20348;SDS011;10332;50.208;18.988;2023-08-24T04:37:27;10.93;;;8.18;;
20348;SDS011;10332;50.208;18.988;2023-08-24T04:39:55;11.85;;;8.82;;
20348;SDS011;10332;50.208;18.988;2023-08-24T04:42:22;12.70;;;9.55;;
20348;SDS011;10332;50.208;18.988;2023-08-24T04:44:50;11.38;;;8.48;;
20348;SDS011;10332;50.208;18.988;2023-08-24T04:47:18;13.45;;;10.18;;
20348;SDS011;10332;50.208;18.988;2023-08-24T04:49:46;14.50;;;10.50;;
20348;SDS011;10332;50.208;18.988;2023-08-24T04:52:13;14.80;;;11.25;;
20348;SDS011;10332;50.208;18.988;2023-08-24T04:54:41;12.65;;;9.10;;
20348;SDS011;10332;50.208;18.988;2023-08-24T04:57:08;12.15;;;8.85;;
20348;SDS011;10332;50.208;18.988;2023-08-24T04:59:35;10.60;;;8.65;;
20348;SDS011;10332;50.208;18.988;2023-08-24T05:02:03;9.02;;;7.88;;
20348;SDS011;10332;50.208;18.988;2023-08-24T05:04:30;10.75;;;8.77;;
20348;SDS011;10332;50.208;18.988;2023-08-24T05:06:58;8.45;;;7.55;;
20348;SDS011;10332;50.208;18.988;2023-08-24T05:09:26;8.38;;;6.85;;
20348;SDS011;10332;50.208;18.988;2023-08-24T05:11:53;6.05;;;5.38;;
20348;SDS011;10332;50.208;18.988;2023-08-24T05:14:21;6.55;;;5.82;;
20348;SDS011;10332;50.208;18.988;2023-08-24T05:16:48;5.65;;;5.10;;
20348;SDS011;10332;50.208;18.988;2023-08-24T05:19:15;5.78;;;4.65;;
20348;SDS011;10332;50.208;18.988;2023-08-24T05:21:43;6.18;;;5.57;;
20348;SDS011;10332;50.208;18.988;2023-08-24T05:24:10;6.95;;;5.80;;
20348;SDS011;10332;50.208;18.988;2023-08-24T05:26:38;7.13;;;6.28;;
20348;SDS011;10332;50.208;18.988;2023-08-24T05:29:05;15.93;;;11.80;;
20348;SDS011;10332;50.208;18.988;2023-08-24T05:31:33;19.55;;;14.35;;
20348;SDS011;10332;50.208;18.988;2023-08-24T05:34:00;18.52;;;14.20;;
20348;SDS011;10332;50.208;18.988;2023-08-24T05:36:27;18.45;;;12.40;;
20348;SDS011;10332;50.208;18.988;2023-08-24T05:38:55;13.98;;;11.43;;
20348;SDS011;10332;50.208;18.988;2023-08-24T05:41:31;15.40;;;10.90;;
20348;SDS011;10332;50.208;18.988;2023-08-24T05:44:00;13.30;;;10.23;;
20348;SDS011;10332;50.208;18.988;2023-08-24T05:46:27;12.23;;;9.30;;
20348;SDS011;10332;50.208;18.988;2023-08-24T05:48:55;11.65;;;10.18;;
20348;SDS011;10332;50.208;18.988;2023-08-24T05:51:26;11.77;;;9.38;;
20348;SDS011;10332;50.208;18.988;2023-08-24T05:53:54;11.60;;;8.45;;
20348;SDS011;10332;50.208;18.988;2023-08-24T05:56:22;14.68;;;10.73;;
20348;SDS011;10332;50.208;18.988;2023-08-24T05:58:50;12.45;;;10.50;;
20348;SDS011;10332;50.208;18.988;2023-08-24T06:01:17;14.82;;;12.00;;
20348;SDS011;10332;50.208;18.988;2023-08-24T06:03:45;18.75;;;15.40;;
20348;SDS011;10332;50.208;18.988;2023-08-24T06:06:13;22.25;;;16.30;;
20348;SDS011;10332;50.208;18.988;2023-08-24T06:08:41;19.30;;;14.80;;
20348;SDS011;10332;50.208;18.988;2023-08-24T06:11:09;17.25;;;14.48;;
20348;SDS011;10332;50.208;18.988;2023-08-24T06:13:37;17.38;;;12.90;;
20348;SDS011;10332;50.208;18.988;2023-08-24T06:16:04;14.88;;;10.60;;
20348;SDS011;10332;50.208;18.988;2023-08-24T06:18:31;12.20;;;9.05;;
20348;SDS011;10332;50.208;18.988;2023-08-24T06:20:59;15.40;;;10.70;;
20348;SDS011;10332;50.208;18.988;2023-08-24T06:23:26;11.48;;;9.07;;
20348;SDS011;10332;50.208;18.988;2023-08-24T06:25:54;11.35;;;8.18;;
20348;SDS011;10332;50.208;18.988;2023-08-24T06:28:21;11.80;;;9.30;;
20348;SDS011;10332;50.208;18.988;2023-08-24T06:30:49;11.95;;;8.73;;
20348;SDS011;10332;50.208;18.988;2023-08-24T06:33:17;13.18;;;10.57;;
20348;SDS011;10332;50.208;18.988;2023-08-24T06:35:45;12.70;;;9.45;;
20348;SDS011;10332;50.208;18.988;2023-08-24T06:38:13;13.98;;;10.63;;
20348;SDS011;10332;50.208;18.988;2023-08-24T06:40:43;11.45;;;9.27;;
20348;SDS011;10332;50.208;18.988;2023-08-24T06:43:10;11.95;;;10.02;;
20348;SDS011;10332;50.208;18.988;2023-08-24T06:45:37;9.77;;;7.88;;
20348;SDS011;10332;50.208;18.988;2023-08-24T06:48:07;11.20;;;8.52;;
20348;SDS011;10332;50.208;18.988;2023-08-24T06:50:34;7.97;;;6.88;;
20348;SDS011;10332;50.208;18.988;2023-08-24T06:53:03;12.35;;;9.43;;
20348;SDS011;10332;50.208;18.988;2023-08-24T06:55:31;12.57;;;8.93;;
20348;SDS011;10332;50.208;18.988;2023-08-24T06:57:59;10.15;;;7.40;;
20348;SDS011;10332;50.208;18.988;2023-08-24T07:00:26;10.57;;;7.50;;
20348;SDS011;10332;50.208;18.988;2023-08-24T07:02:54;9.75;;;7.60;;
20348;SDS011;10332;50.208;18.988;2023-08-24T07:05:21;7.53;;;6.32;;
20348;SDS011;10332;50.208;18.988;2023-08-24T07:07:50;7.30;;;5.55;;
20348;SDS011;10332;50.208;18.988;2023-08-24T07:10:19;6.55;;;5.53;;
20348;SDS011;10332;50.208;18.988;2023-08-24T07:12:47;6.90;;;4.93;;
20348;SDS011;10332;50.208;18.988;2023-08-24T07:15:14;7.03;;;6.22;;
20348;SDS011;10332;50.208;18.988;2023-08-24T07:17:42;6.55;;;5.18;;
20348;SDS011;10332;50.208;18.988;2023-08-24T07:20:09;7.25;;;5.53;;
20348;SDS011;10332;50.208;18.988;2023-08-24T07:22:40;12.43;;;8.73;;
20348;SDS011;10332;50.208;18.988;2023-08-24T07:25:08;15.45;;;11.85;;
20348;SDS011;10332;50.208;18.988;2023-08-24T07:27:38;12.13;;;7.43;;
20348;SDS011;10332;50.208;18.988;2023-08-24T07:30:05;5.95;;;4.63;;
20348;SDS011;10332;50.208;18.988;2023-08-24T07:32:52;8.00;;;4.88;;
20348;SDS011;10332;50.208;18.988;2023-08-24T07:35:21;6.85;;;4.45;;
20348;SDS011;10332;50.208;18.988;2023-08-24T07:37:51;10.45;;;7.60;;
20348;SDS011;10332;50.208;18.988;2023-08-24T07:40:19;7.05;;;5.50;;
20348;SDS011;10332;50.208;18.988;2023-08-24T07:42:47;6.25;;;4.60;;
20348;SDS011;10332;50.208;18.988;2023-08-24T07:45:20;6.05;;;4.78;;
20348;SDS011;10332;50.208;18.988;2023-08-24T07:47:48;4.97;;;4.18;;
20348;SDS011;10332;50.208;18.988;2023-08-24T07:50:16;5.80;;;4.30;;
20348;SDS011;10332;50.208;18.988;2023-08-24T07:52:44;4.35;;;3.50;;
20348;SDS011;10332;50.208;18.988;2023-08-24T07:55:12;4.57;;;3.75;;
20348;SDS011;10332;50.208;18.988;2023-08-24T07:57:40;4.35;;;3.78;;
20348;SDS011;10332;50.208;18.988;2023-08-24T08:00:07;4.07;;;3.25;;
20348;SDS011;10332;50.208;18.988;2023-08-24T08:02:40;4.32;;;3.17;;
20348;SDS011;10332;50.208;18.988;2023-08-24T08:05:08;3.25;;;2.38;;
20348;SDS011;10332;50.208;18.988;2023-08-24T08:07:39;8.95;;;7.10;;
20348;SDS011;10332;50.208;18.988;2023-08-24T08:10:07;9.20;;;7.32;;
20348;SDS011;10332;50.208;18.988;2023-08-24T08:12:35;6.32;;;5.72;;
20348;SDS011;10332;50.208;18.988;2023-08-24T08:15:03;6.13;;;4.70;;
20348;SDS011;10332;50.208;18.988;2023-08-24T08:17:33;4.40;;;3.95;;
20348;SDS011;10332;50.208;18.988;2023-08-24T08:20:00;4.72;;;3.63;;
20348;SDS011;10332;50.208;18.988;2023-08-24T08:22:29;3.35;;;2.83;;
20348;SDS011;10332;50.208;18.988;2023-08-24T08:25:02;3.28;;;2.92;;
20348;SDS011;10332;50.208;18.988;2023-08-24T08:27:30;3.63;;;3.22;;
20348;SDS011;10332;50.208;18.988;2023-08-24T08:29:57;4.47;;;3.08;;
20348;SDS011;10332;50.208;18.988;2023-08-24T08:32:25;3.58;;;2.90;;
20348;SDS011;10332;50.208;18.988;2023-08-24T08:34:54;2.88;;;2.53;;
20348;SDS011;10332;50.208;18.988;2023-08-24T08:37:24;3.50;;;2.58;;
20348;SDS011;10332;50.208;18.988;2023-08-24T08:39:51;3.95;;;2.70;;
20348;SDS011;10332;50.208;18.988;2023-08-24T08:42:18;2.35;;;2.15;;
20348;SDS011;10332;50.208;18.988;2023-08-24T08:44:46;4.35;;;3.67;;
20348;SDS011;10332;50.208;18.988;2023-08-24T08:47:15;13.50;;;11.15;;
20348;SDS011;10332;50.208;18.988;2023-08-24T08:49:44;6.80;;;5.57;;
20348;SDS011;10332;50.208;18.988;2023-08-24T08:52:16;4.82;;;3.38;;
20348;SDS011;10332;50.208;18.988;2023-08-24T08:54:43;4.47;;;3.10;;
20348;SDS011;10332;50.208;18.988;2023-08-24T08:57:10;3.55;;;3.05;;
20348;SDS011;10332;50.208;18.988;2023-08-24T08:59:39;4.00;;;3.08;;
20348;SDS011;10332;50.208;18.988;2023-08-24T09:02:08;6.57;;;5.65;;
20348;SDS011;10332;50.208;18.988;2023-08-24T09:04:43;2.97;;;2.67;;
20348;SDS011;10332;50.208;18.988;2023-08-24T09:07:13;2.97;;;2.65;;
20348;SDS011;10332;50.208;18.988;2023-08-24T09:09:40;2.60;;;2.40;;
20348;SDS011;10332;50.208;18.988;2023-08-24T09:12:09;8.07;;;7.25;;
20348;SDS011;10332;50.208;18.988;2023-08-24T09:14:36;4.50;;;4.10;;
20348;SDS011;10332;50.208;18.988;2023-08-24T09:17:04;6.22;;;5.55;;
20348;SDS011;10332;50.208;18.988;2023-08-24T09:19:32;5.43;;;4.38;;
20348;SDS011;10332;50.208;18.988;2023-08-24T09:22:05;3.28;;;2.97;;
20348;SDS011;10332;50.208;18.988;2023-08-24T09:24:35;2.75;;;2.38;;
20348;SDS011;10332;50.208;18.988;2023-08-24T09:27:05;3.90;;;2.70;;
20348;SDS011;10332;50.208;18.988;2023-08-24T09:29:47;2.72;;;2.53;;
20348;SDS011;10332;50.208;18.988;2023-08-24T09:32:38;3.70;;;2.60;;
20348;SDS011;10332;50.208;18.988;2023-08-24T09:35:08;2.55;;;2.35;;
20348;SDS011;10332;50.208;18.988;2023-08-24T09:37:37;3.45;;;1.83;;
20348;SDS011;10332;50.208;18.988;2023-08-24T09:40:06;2.65;;;1.95;;
20348;SDS011;10332;50.208;18.988;2023-08-24T09:42:39;2.33;;;2.13;;
20348;SDS011;10332;50.208;18.988;2023-08-24T09:45:13;2.40;;;2.20;;
20348;SDS011;10332;50.208;18.988;2023-08-24T09:47:45;2.33;;;1.98;;
20348;SDS011;10332;50.208;18.988;2023-08-24T09:50:17;2.45;;;2.25;;
20348;SDS011;10332;50.208;18.988;2023-08-24T09:52:46;2.53;;;2.30;;
20348;SDS011;10332;50.208;18.988;2023-08-24T09:55:19;2.80;;;2.22;;
20348;SDS011;10332;50.208;18.988;2023-08-24T09:57:50;2.33;;;2.05;;
20348;SDS011;10332;50.208;18.988;2023-08-24T10:00:23;3.10;;;1.95;;
20348;SDS011;10332;50.208;18.988;2023-08-24T10:02:54;2.80;;;2.10;;
20348;SDS011;10332;50.208;18.988;2023-08-24T10:05:23;2.05;;;1.85;;
20348;SDS011;10332;50.208;18.988;2023-08-24T10:07:56;2.72;;;2.00;;
20348;SDS011;10332;50.208;18.988;2023-08-24T10:10:25;1.45;;;1.33;;
20348;SDS011;10332;50.208;18.988;2023-08-24T10:12:56;2.28;;;2.05;;
20348;SDS011;10332;50.208;18.988;2023-08-24T10:15:31;1.70;;;1.60;;
20348;SDS011;10332;50.208;18.988;2023-08-24T10:18:01;6.70;;;6.10;;
20348;SDS011;10332;50.208;18.988;2023-08-24T10:20:30;6.40;;;5.90;;
20348;SDS011;10332;50.208;18.988;2023-08-24T10:22:58;3.13;;;2.83;;
20348;SDS011;10332;50.208;18.988;2023-08-24T10:25:30;2.85;;;2.40;;
20348;SDS011;10332;50.208;18.988;2023-08-24T10:27:59;2.50;;;2.00;;
20348;SDS011;10332;50.208;18.988;2023-08-24T10:30:28;2.35;;;2.15;;
20348;SDS011;10332;50.208;18.988;2023-08-24T10:32:57;3.00;;;2.80;;
20348;SDS011;10332;50.208;18.988;2023-08-24T10:35:26;2.65;;;2.45;;
20348;SDS011;10332;50.208;18.988;2023-08-24T10:37:55;1.73;;;1.63;;
20348;SDS011;10332;50.208;18.988;2023-08-24T10:40:33;1.60;;;1.50;;
20348;SDS011;10332;50.208;18.988;2023-08-24T10:43:03;1.65;;;1.40;;
20348;SDS011;10332;50.208;18.988;2023-08-24T10:48:28;7.95;;;7.10;;
20348;SDS011;10332;50.208;18.988;2023-08-24T10:53:50;3.38;;;3.05;;
20348;SDS011;10332;50.208;18.988;2023-08-24T10:56:30;2.35;;;2.00;;
20348;SDS011;10332;50.208;18.988;2023-08-24T10:59:15;1.98;;;1.88;;
20348;SDS011;10332;50.208;18.988;2023-08-24T11:01:54;2.15;;;1.75;;
20348;SDS011;10332;50.208;18.988;2023-08-24T11:04:24;3.75;;;2.20;;
20348;SDS011;10332;50.208;18.988;2023-08-24T11:06:55;1.85;;;1.67;;
20348;SDS011;10332;50.208;18.988;2023-08-24T11:09:26;2.33;;;1.63;;
20348;SDS011;10332;50.208;18.988;2023-08-24T11:12:15;3.80;;;3.50;;
20348;SDS011;10332;50.208;18.988;2023-08-24T11:14:49;6.70;;;6.10;;
20348;SDS011;10332;50.208;18.988;2023-08-24T11:17:21;3.97;;;2.20;;
20348;SDS011;10332;50.208;18.988;2023-08-24T11:19:50;2.63;;;2.03;;
20348;SDS011;10332;50.208;18.988;2023-08-24T11:22:20;1.70;;;1.60;;
20348;SDS011;10332;50.208;18.988;2023-08-24T11:24:48;1.92;;;1.67;;
20348;SDS011;10332;50.208;18.988;2023-08-24T11:27:16;3.65;;;2.03;;
20348;SDS011;10332;50.208;18.988;2023-08-24T11:29:47;1.95;;;1.75;;
20348;SDS011;10332;50.208;18.988;2023-08-24T11:32:27;1.73;;;1.63;;
20348;SDS011;10332;50.208;18.988;2023-08-24T11:34:54;1.65;;;1.50;;
20348;SDS011;10332;50.208;18.988;2023-08-24T11:37:22;2.03;;;1.77;;
20348;SDS011;10332;50.208;18.988;2023-08-24T11:39:49;2.10;;;1.90;;
20348;SDS011;10332;50.208;18.988;2023-08-24T11:42:22;1.88;;;1.67;;
20348;SDS011;10332;50.208;18.988;2023-08-24T11:44:49;2.30;;;1.73;;
20348;SDS011;10332;50.208;18.988;2023-08-24T11:47:21;2.15;;;1.40;;
20348;SDS011;10332;50.208;18.988;2023-08-24T11:49:50;2.85;;;1.90;;
20348;SDS011;10332;50.208;18.988;2023-08-24T11:52:17;3.45;;;2.15;;
20348;SDS011;10332;50.208;18.988;2023-08-24T11:54:45;4.30;;;3.90;;
20348;SDS011;10332;50.208;18.988;2023-08-24T11:57:12;6.00;;;5.43;;
20348;SDS011;10332;50.208;18.988;2023-08-24T11:59:40;4.97;;;3.58;;
20348;SDS011;10332;50.208;18.988;2023-08-24T12:02:10;4.85;;;3.13;;
20348;SDS011;10332;50.208;18.988;2023-08-24T12:04:39;2.10;;;2.00;;
20348;SDS011;10332;50.208;18.988;2023-08-24T12:07:13;2.85;;;2.00;;
20348;SDS011;10332;50.208;18.988;2023-08-24T12:09:42;3.30;;;2.63;;
20348;SDS011;10332;50.208;18.988;2023-08-24T12:12:16;2.65;;;2.45;;
20348;SDS011;10332;50.208;18.988;2023-08-24T12:14:46;2.47;;;2.00;;
20348;SDS011;10332;50.208;18.988;2023-08-24T12:17:15;1.90;;;1.80;;
20348;SDS011;10332;50.208;18.988;2023-08-24T12:19:56;1.50;;;1.40;;
20348;SDS011;10332;50.208;18.988;2023-08-24T12:22:32;3.15;;;2.60;;
20348;SDS011;10332;50.208;18.988;2023-08-24T12:25:00;3.95;;;2.63;;
20348;SDS011;10332;50.208;18.988;2023-08-24T12:27:27;2.70;;;2.05;;
20348;SDS011;10332;50.208;18.988;2023-08-24T12:29:59;4.28;;;2.90;;
20348;SDS011;10332;50.208;18.988;2023-08-24T12:32:41;3.13;;;2.33;;
20348;SDS011;10332;50.208;18.988;2023-08-24T12:35:14;4.40;;;3.25;;
20348;SDS011;10332;50.208;18.988;2023-08-24T12:37:42;2.78;;;2.40;;
20348;SDS011;10332;50.208;18.988;2023-08-24T12:40:09;2.75;;;2.45;;
20348;SDS011;10332;50.208;18.988;2023-08-24T12:42:37;2.30;;;2.10;;
20348;SDS011;10332;50.208;18.988;2023-08-24T12:45:05;2.65;;;2.00;;
20348;SDS011;10332;50.208;18.988;2023-08-24T12:47:33;1.73;;;1.63;;
20348;SDS011;10332;50.208;18.988;2023-08-24T12:50:05;3.25;;;2.83;;
20348;SDS011;10332;50.208;18.988;2023-08-24T12:52:33;3.13;;;2.80;;
20348;SDS011;10332;50.208;18.988;2023-08-24T12:55:01;2.92;;;2.45;;
20348;SDS011;10332;50.208;18.988;2023-08-24T12:57:30;2.60;;;2.22;;
20348;SDS011;10332;50.208;18.988;2023-08-24T12:59:57;4.30;;;2.60;;
20348;SDS011;10332;50.208;18.988;2023-08-24T13:02:25;4.45;;;2.88;;
20348;SDS011;10332;50.208;18.988;2023-08-24T13:05:04;4.43;;;2.83;;
20348;SDS011;10332;50.208;18.988;2023-08-24T13:07:32;4.20;;;2.60;;
20348;SDS011;10332;50.208;18.988;2023-08-24T13:10:02;3.65;;;2.65;;
20348;SDS011;10332;50.208;18.988;2023-08-24T13:12:31;4.03;;;3.60;;
20348;SDS011;10332;50.208;18.988;2023-08-24T13:14:59;3.22;;;2.85;;
20348;SDS011;10332;50.208;18.988;2023-08-24T13:17:26;5.30;;;2.40;;
20348;SDS011;10332;50.208;18.988;2023-08-24T13:19:54;3.50;;;2.75;;
20348;SDS011;10332;50.208;18.988;2023-08-24T13:22:21;3.13;;;2.47;;
20348;SDS011;10332;50.208;18.988;2023-08-24T13:24:49;3.08;;;2.50;;
20348;SDS011;10332;50.208;18.988;2023-08-24T13:27:17;2.95;;;2.15;;
20348;SDS011;10332;50.208;18.988;2023-08-24T13:29:45;2.70;;;2.30;;
20348;SDS011;10332;50.208;18.988;2023-08-24T13:32:12;6.32;;;5.40;;
20348;SDS011;10332;50.208;18.988;2023-08-24T13:34:40;6.88;;;6.18;;
20348;SDS011;10332;50.208;18.988;2023-08-24T13:37:08;3.00;;;2.50;;
20348;SDS011;10332;50.208;18.988;2023-08-24T13:39:35;2.50;;;2.30;;
20348;SDS011;10332;50.208;18.988;2023-08-24T13:42:03;2.92;;;2.63;;
20348;SDS011;10332;50.208;18.988;2023-08-24T13:44:31;3.65;;;2.30;;
20348;SDS011;10332;50.208;18.988;2023-08-24T13:46:58;1.95;;;1.85;;
20348;SDS011;10332;50.208;18.988;2023-08-24T13:49:25;3.05;;;2.10;;
20348;SDS011;10332;50.208;18.988;2023-08-24T13:52:06;3.67;;;2.33;;
20348;SDS011;10332;50.208;18.988;2023-08-24T13:54:35;2.70;;;2.10;;
20348;SDS011;10332;50.208;18.988;2023-08-24T13:57:02;3.63;;;2.47;;
20348;SDS011;10332;50.208;18.988;2023-08-24T13:59:31;2.25;;;2.05;;
20348;SDS011;10332;50.208;18.988;2023-08-24T14:01:59;2.88;;;2.60;;
20348;SDS011;10332;50.208;18.988;2023-08-24T14:04:27;3.50;;;3.20;;
20348;SDS011;10332;50.208;18.988;2023-08-24T14:06:54;3.33;;;2.47;;
20348;SDS011;10332;50.208;18.988;2023-08-24T14:09:22;3.05;;;2.40;;
20348;SDS011;10332;50.208;18.988;2023-08-24T14:11:49;3.25;;;2.20;;
20348;SDS011;10332;50.208;18.988;2023-08-24T14:14:17;2.40;;;2.20;;
20348;SDS011;10332;50.208;18.988;2023-08-24T14:16:44;3.90;;;3.50;;
20348;SDS011;10332;50.208;18.988;2023-08-24T14:19:14;2.33;;;2.10;;
20348;SDS011;10332;50.208;18.988;2023-08-24T14:21:42;2.33;;;1.90;;
20348;SDS011;10332;50.208;18.988;2023-08-24T14:24:11;3.00;;;2.70;;
20348;SDS011;10332;50.208;18.988;2023-08-24T14:26:38;2.85;;;2.33;;
20348;SDS011;10332;50.208;18.988;2023-08-24T14:29:13;2.53;;;2.30;;
20348;SDS011;10332;50.208;18.988;2023-08-24T14:31:41;2.10;;;1.90;;
20348;SDS011;10332;50.208;18.988;2023-08-24T14:34:08;2.28;;;1.90;;
20348;SDS011;10332;50.208;18.988;2023-08-24T14:36:36;2.13;;;1.92;;
20348;SDS011;10332;50.208;18.988;2023-08-24T14:39:03;2.75;;;2.25;;
20348;SDS011;10332;50.208;18.988;2023-08-24T14:41:31;2.83;;;2.10;;
20348;SDS011;10332;50.208;18.988;2023-08-24T14:43:59;2.05;;;1.85;;
20348;SDS011;10332;50.208;18.988;2023-08-24T14:46:32;1.90;;;1.67;;
20348;SDS011;10332;50.208;18.988;2023-08-24T14:49:01;2.58;;;1.90;;